Bookmark and Share
Track history (hours):
 

Flinter Rose

Last reported at 2014-Apr-16 10:32 UTC. Time now 2014-Apr-19 19:41 UTC.
Position N 56°02' E 016°40'.

Length 101 m; draft 5.6 m.

Type: Other ship. MMSI: 246227000.

NotesDate/timePositionNaut miles runAvg speedWind from/ knotsBaromVisibWave heightAir tempDewpointWater temp
2014-Apr-16 10:32N 56°02' E 016°40'1111.2
2014-Apr-16 09:33N 55°57' E 016°23'22 9.9
2014-Apr-16 07:20N 55°46' E 015°49'910.8
2014-Apr-16 06:32N 55°41' E 015°36'1110.8
2014-Apr-16 05:32N 55°36' E 015°20'1110.8
2014-Apr-16 04:32N 55°30' E 015°03'1111.0
2014-Apr-16 03:33N 55°25' E 014°47'1110.8
2014-Apr-16 02:33N 55°18' E 014°32'1111.1
2014-Apr-16 01:33N 55°11' E 014°18'1110.6
2014-Apr-16 00:33N 55°11' E 013°59'1010.3
2014-Apr-15 23:33N 55°12' E 013°41'1110.7
2014-Apr-15 22:33N 55°13' E 013°22'1110.5
2014-Apr-15 21:33N 55°14' E 013°04'1010.4
2014-Apr-15 20:33N 55°16' E 012°46'8 8.1
2014-Apr-15 19:33N 55°23' E 012°39'1010.3
2014-Apr-15 18:33N 55°33' E 012°42'1110.7
2014-Apr-15 17:33N 55°44' E 012°41'1110.7
2014-Apr-15 16:33N 55°54' E 012°38'1110.6
2014-Apr-15 15:33N 56°05' E 012°35'1111.4
2014-Apr-15 14:33N 56°14' E 012°22'11 5.6
2014-Apr-15 12:33N 56°22' E 012°10'2110.6
2014-Apr-15 10:32N 56°42' E 011°53'1010.5
2014-Apr-15 09:34N 56°51' E 011°47'1010.4
2014-Apr-15 08:34N 57°01' E 011°41'1010.3
2014-Apr-15 07:34N 57°11' E 011°34'1111.0
2014-Apr-15 06:34N 57°21' E 011°28'1110.6
2014-Apr-15 05:34N 57°30' E 011°18'2010.1
2014-Apr-15 03:34N 57°44' E 010°51'10 9.6
2014-Apr-15 02:33N 57°47' E 010°33'1010.3
2014-Apr-15 01:34N 57°46' E 010°14'9 9.4
2014-Apr-15 00:33N 57°46' E 009°57'40010.0
2014-Apr-13 08:27N 58°40' W 002°36'1112.6
2014-Apr-13 07:33N 58°42' W 002°57'1413.9
2014-Apr-13 06:31N 58°42' W 003°24'1111.1
2014-Apr-13 05:33N 58°41' W 003°45'10 9.7
2014-Apr-13 04:33N 58°41' W 004°03'9 9.2
2014-Apr-13 03:33N 58°40' W 004°21'10 8.8
2014-Apr-13 02:23N 58°40' W 004°41'27 7.1
2014-Apr-12 22:33N 58°25' W 005°25'9 8.8
2014-Apr-12 21:33N 58°18' W 005°35'9 8.8
2014-Apr-12 20:33N 58°11' W 005°46'9 9.2
2014-Apr-12 19:33N 58°04' W 005°56'155 8.0
2014-Apr-12 00:20N 55°30' W 006°20'4311.0
2014-Apr-11 20:27N 54°56' W 005°35'8 9.2
2014-Apr-11 19:33N 54°48' W 005°30'9 9.1
2014-Apr-11 18:33N 54°40' W 005°22'9 9.4
2014-Apr-11 17:33N 54°32' W 005°16'1010.0
2014-Apr-11 16:33N 54°23' W 005°09'1110.9
2014-Apr-11 15:30N 54°12' W 004°60'5611.2
2014-Apr-11 10:29N 53°36' W 003°47'1011.2
2014-Apr-11 09:33N 53°33' W 003°30'1010.5
2014-Apr-11 08:33N 53°31' W 003°12'9 8.9
2014-Apr-11 07:33N 53°26' W 003°01'7 6.8
2014-Apr-11 06:33N 53°19' W 002°57'4 3.9
2014-Apr-11 05:28N 53°17' W 002°51'4 0.1
2014-Apr-09 19:33N 53°19' W 002°57'3 3.5
2014-Apr-09 18:33N 53°23' W 002°59'  

Dump ship's entire track history

sailing weather and tide predictions

Flinter Rose — PBUB — position and weather